createdAt,value
2022-10-23T00:01:27.436Z,36.80
2022-10-23T00:03:58.139Z,35.67
2022-10-23T00:06:26.693Z,32.00
2022-10-23T00:08:55.268Z,27.63
2022-10-23T00:11:26.938Z,30.20
2022-10-23T00:13:57.276Z,29.50
2022-10-23T00:16:25.113Z,26.97
2022-10-23T00:18:52.959Z,26.47
2022-10-23T00:21:21.289Z,26.57
2022-10-23T00:23:49.172Z,25.43
2022-10-23T00:26:17.477Z,24.80
2022-10-23T00:28:48.296Z,26.60
2022-10-23T00:31:16.375Z,24.77
2022-10-23T00:33:44.960Z,24.80
2022-10-23T00:36:15.660Z,25.07
2022-10-23T00:38:43.495Z,24.07
2022-10-23T00:41:17.166Z,23.83
2022-10-23T00:44:01.955Z,23.83
2022-10-23T00:46:29.826Z,23.67
2022-10-23T00:48:58.860Z,24.33
2022-10-23T00:51:30.616Z,21.63
2022-10-23T00:54:22.833Z,20.70
2022-10-23T00:56:50.096Z,20.33
2022-10-23T00:59:19.431Z,27.90
2022-10-23T01:01:48.361Z,33.27
2022-10-23T01:04:16.467Z,31.77
2022-10-23T01:06:52.506Z,32.43
2022-10-23T01:09:28.196Z,31.17
2022-10-23T01:12:02.414Z,30.07
2022-10-23T01:14:43.561Z,30.90
2022-10-23T01:17:19.327Z,28.17
2022-10-23T01:20:02.497Z,28.80
2022-10-23T01:22:49.140Z,25.70
2022-10-23T01:25:29.763Z,26.87
2022-10-23T01:28:03.895Z,27.57
2022-10-23T01:30:34.802Z,26.73
2022-10-23T01:33:07.189Z,26.20
2022-10-23T01:35:38.185Z,26.00
2022-10-23T01:38:13.133Z,26.27
2022-10-23T01:40:48.737Z,26.57
2022-10-23T01:43:21.407Z,25.93
2022-10-23T01:45:52.781Z,23.77
2022-10-23T01:48:24.799Z,24.67
2022-10-23T01:50:54.911Z,25.53
2022-10-23T01:53:24.076Z,24.37
2022-10-23T01:55:53.099Z,24.83
2022-10-23T01:58:24.093Z,24.73
2022-10-23T02:00:53.751Z,23.77
2022-10-23T02:03:23.212Z,24.30
2022-10-23T02:05:51.213Z,24.00
2022-10-23T02:08:19.191Z,23.77
2022-10-23T02:10:52.871Z,22.70
2022-10-23T02:13:29.515Z,25.40
2022-10-23T02:16:06.768Z,22.93
2022-10-23T02:18:43.973Z,22.70
2022-10-23T02:21:15.311Z,21.67
2022-10-23T02:23:52.527Z,22.10
2022-10-23T02:26:27.188Z,22.43
2022-10-23T02:29:01.360Z,23.17
2022-10-23T02:31:29.240Z,23.73
2022-10-23T02:33:57.142Z,22.97
2022-10-23T02:36:24.976Z,25.60
2022-10-23T02:38:52.813Z,28.00
2022-10-23T02:41:37.355Z,26.53
2022-10-23T02:44:19.436Z,26.97
2022-10-23T02:46:54.351Z,29.57
2022-10-23T02:49:27.903Z,23.87
2022-10-23T02:52:05.380Z,22.93
2022-10-23T02:54:44.370Z,24.23
2022-10-23T02:57:21.315Z,22.03
2022-10-23T02:59:56.790Z,21.83
2022-10-23T03:02:30.062Z,21.33
2022-10-23T03:05:01.629Z,20.87
2022-10-23T03:07:29.807Z,21.27
2022-10-23T03:09:57.621Z,21.63
2022-10-23T03:12:25.529Z,21.97
2022-10-23T03:14:54.820Z,21.20
2022-10-23T03:17:22.651Z,21.17
2022-10-23T03:19:50.451Z,23.33
2022-10-23T03:22:18.769Z,22.63
2022-10-23T03:24:46.819Z,22.20
2022-10-23T03:27:14.926Z,22.73
2022-10-23T03:29:43.000Z,22.40
2022-10-23T03:32:12.253Z,22.87
2022-10-23T03:34:40.080Z,22.70
2022-10-23T03:37:07.912Z,22.83
2022-10-23T03:39:35.847Z,22.20
2022-10-23T03:42:03.665Z,22.20
2022-10-23T03:44:32.205Z,22.17
2022-10-23T03:47:00.031Z,20.43
2022-10-23T03:49:29.506Z,20.97
2022-10-23T03:51:57.347Z,20.20
2022-10-23T03:54:26.392Z,20.83
2022-10-23T03:56:56.639Z,18.93
2022-10-23T03:59:25.514Z,19.37
2022-10-23T04:01:53.486Z,18.47
2022-10-23T04:04:21.503Z,19.53
2022-10-23T04:06:50.749Z,19.20
2022-10-23T04:09:18.736Z,19.10
2022-10-23T04:11:46.599Z,19.00
2022-10-23T04:14:15.040Z,19.03
2022-10-23T04:16:43.113Z,19.23
2022-10-23T04:19:10.984Z,18.60
2022-10-23T04:21:38.937Z,18.77
2022-10-23T04:24:08.699Z,19.07
2022-10-23T04:26:36.613Z,18.63
2022-10-23T04:29:04.770Z,18.73
2022-10-23T04:31:32.640Z,18.47
2022-10-23T04:34:00.655Z,17.23
2022-10-23T04:36:28.613Z,20.77
2022-10-23T04:38:56.428Z,19.73
2022-10-23T04:41:25.739Z,20.57
2022-10-23T04:43:53.588Z,21.10
2022-10-23T04:46:21.425Z,21.60
2022-10-23T04:48:49.325Z,21.17
2022-10-23T04:51:17.337Z,20.67
2022-10-23T04:53:45.185Z,22.07
2022-10-23T04:56:14.913Z,21.57
2022-10-23T04:58:44.118Z,21.20
2022-10-23T05:01:12.312Z,21.37
2022-10-23T05:03:40.351Z,20.33
2022-10-23T05:06:08.440Z,21.73
2022-10-23T05:08:36.901Z,20.73
2022-10-23T05:11:05.248Z,20.77
2022-10-23T05:13:33.172Z,21.10
2022-10-23T05:16:02.415Z,19.87
2022-10-23T05:18:34.216Z,19.77
2022-10-23T05:21:05.662Z,20.10
2022-10-23T05:23:37.061Z,21.10
2022-10-23T05:26:05.848Z,21.57
2022-10-23T05:28:33.813Z,21.13
2022-10-23T05:31:06.223Z,20.03
2022-10-23T05:33:34.516Z,18.30
2022-10-23T05:36:02.736Z,20.87
2022-10-23T05:38:34.849Z,19.53
2022-10-23T05:41:03.190Z,21.17
2022-10-23T05:43:31.487Z,20.10
2022-10-23T05:45:59.562Z,20.70
2022-10-23T05:48:34.792Z,22.83
2022-10-23T05:51:06.703Z,22.27
2022-10-23T05:53:36.252Z,21.50
2022-10-23T05:56:07.710Z,21.63
2022-10-23T05:58:37.360Z,19.97
2022-10-23T06:01:11.243Z,20.60
2022-10-23T06:03:42.474Z,19.90
2022-10-23T06:06:11.999Z,19.93
2022-10-23T06:08:41.994Z,18.50
2022-10-23T06:11:13.569Z,18.03
2022-10-23T06:13:44.762Z,16.80
2022-10-23T06:16:16.107Z,17.40
2022-10-23T06:18:46.020Z,16.50
2022-10-23T06:21:14.662Z,16.43
2022-10-23T06:23:44.050Z,16.87
2022-10-23T06:26:14.624Z,16.63
2022-10-23T06:28:42.847Z,17.13
2022-10-23T06:31:12.908Z,16.73
2022-10-23T06:33:41.449Z,15.37
2022-10-23T06:36:11.348Z,14.17
2022-10-23T06:38:40.639Z,13.23
2022-10-23T06:41:13.650Z,11.80
2022-10-23T06:43:41.508Z,10.67
2022-10-23T06:46:09.980Z,8.83
2022-10-23T06:48:37.825Z,8.90
2022-10-23T06:51:08.026Z,8.70
2022-10-23T06:53:37.777Z,7.90
2022-10-23T06:56:07.361Z,8.27
2022-10-23T06:58:35.478Z,7.88
2022-10-23T07:01:05.053Z,7.38
2022-10-23T07:03:34.305Z,7.63
2022-10-23T07:06:02.403Z,7.88
2022-10-23T07:08:30.477Z,7.30
2022-10-23T07:11:04.751Z,7.22
2022-10-23T07:13:32.634Z,7.50
2022-10-23T07:16:00.489Z,7.60
2022-10-23T07:18:28.401Z,7.65
2022-10-23T07:20:59.581Z,7.40
2022-10-23T07:23:27.540Z,8.73
2022-10-23T07:25:55.414Z,8.43
2022-10-23T07:28:24.774Z,7.20
2022-10-23T07:30:58.064Z,8.15
2022-10-23T07:33:25.980Z,7.75
2022-10-23T07:35:54.330Z,7.18
2022-10-23T07:38:22.256Z,7.85
2022-10-23T07:40:50.207Z,7.15
2022-10-23T07:43:18.709Z,7.03
2022-10-23T07:45:49.756Z,6.93
2022-10-23T07:48:18.199Z,7.53
2022-10-23T07:50:46.431Z,7.30
2022-10-23T07:53:18.896Z,7.25
2022-10-23T07:55:53.619Z,6.70
2022-10-23T07:58:21.495Z,6.05
2022-10-23T08:00:56.606Z,6.45
2022-10-23T08:03:24.502Z,6.50
2022-10-23T08:05:53.637Z,7.43
2022-10-23T08:08:23.798Z,15.25
2022-10-23T08:10:53.347Z,6.15
2022-10-23T08:13:21.816Z,6.40
2022-10-23T08:15:52.538Z,6.60
2022-10-23T08:18:20.747Z,6.93
2022-10-23T08:20:51.226Z,6.20
2022-10-23T08:23:20.323Z,5.90
2022-10-23T08:25:48.320Z,6.05
2022-10-23T08:28:17.505Z,6.43
2022-10-23T08:30:48.766Z,5.72
2022-10-23T08:33:18.838Z,5.18
2022-10-23T08:35:48.613Z,5.63
2022-10-23T08:38:16.491Z,5.38
2022-10-23T08:40:46.878Z,5.50
2022-10-23T08:43:21.108Z,5.85
2022-10-23T08:45:53.979Z,6.07
2022-10-23T08:48:27.178Z,5.88
2022-10-23T08:50:59.379Z,5.93
2022-10-23T08:53:32.742Z,5.07
2022-10-23T08:56:04.155Z,5.43
2022-10-23T08:58:40.509Z,5.70
2022-10-23T09:01:34.093Z,4.90
2022-10-23T09:04:04.768Z,5.32
2022-10-23T09:06:40.464Z,5.03
2022-10-23T09:09:23.881Z,5.65
2022-10-23T09:12:00.805Z,5.35
2022-10-23T09:14:54.872Z,4.93
2022-10-23T09:17:26.999Z,4.50
2022-10-23T09:20:02.667Z,4.95
2022-10-23T09:22:30.642Z,4.60
2022-10-23T09:24:58.483Z,5.07
2022-10-23T09:27:26.352Z,4.18
2022-10-23T09:29:56.406Z,4.18
2022-10-23T09:32:34.680Z,4.30
2022-10-23T09:35:04.035Z,5.47
2022-10-23T09:37:35.861Z,4.22
2022-10-23T09:40:19.311Z,3.97
2022-10-23T09:42:56.863Z,4.60
2022-10-23T09:45:31.247Z,4.07
2022-10-23T09:48:13.442Z,4.20
2022-10-23T09:50:51.208Z,4.70
2022-10-23T09:53:27.911Z,4.45
2022-10-23T09:55:57.992Z,3.83
2022-10-23T09:58:33.568Z,3.80
2022-10-23T10:01:01.849Z,3.92
2022-10-23T10:03:29.844Z,4.07
2022-10-23T10:06:01.552Z,3.80
2022-10-23T10:08:45.338Z,3.80
2022-10-23T10:11:20.656Z,4.05
2022-10-23T10:14:02.467Z,3.55
2022-10-23T10:16:42.940Z,3.42
2022-10-23T10:19:24.601Z,3.80
2022-10-23T10:22:00.823Z,3.70
2022-10-23T10:24:37.118Z,3.70
2022-10-23T10:27:19.485Z,3.70
2022-10-23T10:30:03.716Z,3.50
2022-10-23T10:32:41.039Z,3.60
2022-10-23T10:35:23.609Z,3.60
2022-10-23T10:38:05.763Z,3.70
2022-10-23T10:40:37.287Z,3.40
2022-10-23T10:43:29.384Z,3.90
2022-10-23T10:46:04.267Z,3.53
2022-10-23T10:48:50.547Z,3.65
2022-10-23T10:51:27.408Z,3.80
2022-10-23T10:54:11.320Z,3.63
2022-10-23T10:56:42.924Z,3.42
2022-10-23T10:59:17.757Z,3.33
2022-10-23T11:01:52.300Z,3.60
2022-10-23T11:04:31.891Z,3.40
2022-10-23T11:07:02.689Z,3.63
2022-10-23T11:09:32.956Z,3.30
2022-10-23T11:12:00.937Z,3.08
2022-10-23T11:14:30.927Z,2.78
2022-10-23T11:17:04.413Z,3.17
2022-10-23T11:19:38.031Z,3.17
2022-10-23T11:22:12.319Z,2.65
2022-10-23T11:25:15.665Z,3.17
2022-10-23T11:28:03.321Z,3.10
2022-10-23T11:30:41.894Z,2.83
2022-10-23T11:33:46.707Z,3.17
2022-10-23T11:36:18.771Z,3.35
2022-10-23T11:38:48.947Z,3.13
2022-10-23T11:41:26.695Z,2.90
2022-10-23T11:44:01.404Z,2.97
2022-10-23T11:46:35.181Z,3.80
2022-10-23T11:49:06.053Z,3.17
2022-10-23T11:51:35.707Z,3.28
2022-10-23T11:54:24.636Z,3.70
2022-10-23T11:56:56.366Z,3.15
2022-10-23T11:59:28.904Z,2.88
2022-10-23T12:01:58.775Z,3.00
2022-10-23T12:04:31.816Z,2.50
2022-10-23T12:07:02.824Z,2.78
2022-10-23T12:09:42.603Z,2.78
2022-10-23T12:12:29.470Z,3.30
2022-10-23T12:15:10.141Z,3.20
2022-10-23T12:17:40.216Z,3.13
2022-10-23T12:20:23.683Z,2.90
2022-10-23T12:23:03.083Z,3.08
2022-10-23T12:25:40.271Z,2.90
2022-10-23T12:28:26.455Z,2.95
2022-10-23T12:31:04.894Z,2.80
2022-10-23T12:33:38.945Z,3.13
2022-10-23T12:36:25.873Z,2.78
2022-10-23T12:38:54.778Z,2.83
2022-10-23T12:41:26.467Z,2.90
2022-10-23T12:43:59.386Z,2.40
2022-10-23T12:46:34.986Z,2.63
2022-10-23T12:49:05.073Z,2.35
2022-10-23T12:51:34.764Z,2.75
2022-10-23T12:54:03.513Z,2.60
2022-10-23T12:56:36.759Z,1.98
2022-10-23T12:59:14.707Z,2.25
2022-10-23T13:01:43.457Z,2.22
2022-10-23T13:04:23.073Z,2.08
2022-10-23T13:06:53.094Z,2.13
2022-10-23T13:09:25.994Z,2.05
2022-10-23T13:11:54.416Z,2.10
2022-10-23T13:14:38.207Z,2.20
2022-10-23T13:17:10.218Z,1.65
2022-10-23T13:19:38.833Z,2.50
2022-10-23T13:22:19.138Z,2.25
2022-10-23T13:24:47.307Z,2.60
2022-10-23T13:27:26.924Z,2.28
2022-10-23T13:29:56.173Z,2.80
2022-10-23T13:32:25.685Z,2.80
2022-10-23T13:35:04.137Z,3.10
2022-10-23T13:37:38.406Z,3.90
2022-10-23T13:40:10.177Z,4.55
2022-10-23T13:42:38.009Z,4.75
2022-10-23T13:45:17.225Z,5.35
2022-10-23T13:47:45.468Z,6.13
2022-10-23T13:50:14.926Z,7.50
2022-10-23T13:52:42.867Z,6.57
2022-10-23T13:55:21.631Z,6.53
2022-10-23T13:57:49.504Z,7.18
2022-10-23T14:00:19.907Z,6.45
2022-10-23T14:02:47.859Z,6.75
2022-10-23T14:05:15.770Z,5.28
2022-10-23T14:07:43.839Z,4.10
2022-10-23T14:10:11.830Z,3.47
2022-10-23T14:12:41.719Z,2.85
2022-10-23T14:15:11.341Z,3.17
2022-10-23T14:17:40.581Z,3.88
2022-10-23T14:20:09.763Z,4.53
2022-10-23T14:22:37.637Z,4.18
2022-10-23T14:25:06.237Z,3.50
2022-10-23T14:27:34.160Z,3.70
2022-10-23T14:30:02.018Z,3.15
2022-10-23T14:32:30.867Z,3.20
2022-10-23T14:35:03.738Z,2.80
2022-10-23T14:37:32.111Z,3.03
2022-10-23T14:40:00.512Z,2.83
2022-10-23T14:42:34.069Z,3.15
2022-10-23T14:45:02.793Z,3.83
2022-10-23T14:47:32.959Z,3.72
2022-10-23T14:50:02.199Z,5.57
2022-10-23T14:52:30.039Z,8.50
2022-10-23T14:54:58.038Z,8.88
2022-10-23T14:57:25.914Z,8.95
2022-10-23T14:59:53.767Z,10.63
2022-10-23T15:02:21.620Z,12.43
2022-10-23T15:04:49.459Z,14.38
2022-10-23T15:07:18.712Z,15.50
2022-10-23T15:09:46.561Z,15.93
2022-10-23T15:12:14.600Z,19.83
2022-10-23T15:14:42.546Z,21.88
2022-10-23T15:17:15.456Z,24.10
2022-10-23T15:19:43.780Z,26.60
2022-10-23T15:22:11.632Z,24.60
2022-10-23T15:24:40.948Z,16.63
2022-10-23T15:29:37.610Z,11.07
2022-10-23T15:32:07.739Z,7.70
2022-10-23T15:34:36.317Z,9.50
2022-10-23T15:37:05.168Z,9.47
2022-10-23T15:39:35.441Z,16.17
2022-10-23T15:42:06.764Z,10.07
2022-10-23T15:44:35.198Z,7.80
2022-10-23T15:47:03.268Z,5.53
2022-10-23T15:49:31.359Z,5.03
2022-10-23T15:51:59.372Z,6.50
2022-10-23T15:54:30.520Z,6.23
2022-10-23T15:57:00.893Z,5.73
2022-10-23T15:59:31.502Z,6.00
2022-10-23T16:01:59.533Z,6.50
2022-10-23T16:04:28.533Z,6.20
2022-10-23T16:06:56.402Z,6.77
2022-10-23T16:09:24.237Z,5.80
2022-10-23T16:11:52.100Z,6.80
2022-10-23T16:14:20.066Z,5.83
2022-10-23T16:16:49.364Z,5.33
2022-10-23T16:19:17.307Z,6.40
2022-10-23T16:21:45.171Z,12.57
2022-10-23T16:24:13.048Z,9.60
2022-10-23T16:26:41.416Z,9.60
2022-10-23T16:29:10.582Z,6.47
2022-10-23T16:31:38.478Z,6.63
2022-10-23T16:34:08.251Z,5.93
2022-10-23T16:36:39.042Z,5.87
2022-10-23T16:39:07.956Z,8.00
2022-10-23T16:41:35.891Z,7.67
2022-10-23T16:44:03.834Z,6.73
2022-10-23T16:46:32.041Z,6.57
2022-10-23T16:48:59.920Z,6.73
2022-10-23T16:51:32.815Z,7.20
2022-10-23T16:54:00.679Z,6.93
2022-10-23T16:56:29.977Z,6.43
2022-10-23T17:01:32.983Z,6.10
2022-10-23T17:04:01.185Z,6.37
2022-10-23T17:06:32.251Z,7.60
2022-10-23T17:09:01.843Z,8.83
2022-10-23T17:11:31.514Z,6.90
2022-10-23T17:14:01.228Z,6.77
2022-10-23T17:16:31.432Z,7.40
2022-10-23T17:18:59.599Z,7.80
2022-10-23T17:21:27.496Z,11.83
2022-10-23T17:23:56.822Z,7.37
2022-10-23T17:26:24.736Z,9.77
2022-10-23T17:28:52.609Z,7.43
2022-10-23T17:31:22.813Z,7.30
2022-10-23T17:33:52.966Z,7.67
2022-10-23T17:36:22.634Z,7.93
2022-10-23T17:38:50.819Z,8.10
2022-10-23T17:41:22.525Z,7.90
2022-10-23T17:43:50.868Z,7.07
2022-10-23T17:46:19.954Z,6.97
2022-10-23T17:48:47.807Z,6.70
2022-10-23T17:51:17.314Z,6.77
2022-10-23T17:53:47.248Z,6.80
2022-10-23T17:56:19.081Z,7.13
2022-10-23T17:58:48.898Z,6.50
2022-10-23T18:01:20.093Z,7.13
2022-10-23T18:03:48.354Z,7.20
2022-10-23T18:06:19.283Z,7.30
2022-10-23T18:08:47.899Z,6.20
2022-10-23T18:11:16.997Z,6.93
2022-10-23T18:13:45.293Z,7.17
2022-10-23T18:16:15.431Z,6.93
2022-10-23T18:18:45.065Z,6.73
2022-10-23T18:21:12.894Z,7.57
2022-10-23T18:23:40.756Z,8.00
2022-10-23T18:26:15.984Z,7.50
2022-10-23T18:28:44.667Z,7.77
2022-10-23T18:31:14.649Z,7.63
2022-10-23T18:33:42.873Z,7.63
2022-10-23T18:36:15.667Z,7.70
2022-10-23T18:38:43.670Z,9.10
2022-10-23T18:41:11.820Z,10.53
2022-10-23T18:43:43.677Z,11.43
2022-10-23T18:46:12.003Z,13.13
2022-10-23T18:48:41.645Z,12.97
2022-10-23T18:51:15.788Z,14.97
2022-10-23T18:53:46.737Z,15.67
2022-10-23T18:56:15.466Z,19.80
2022-10-23T18:58:43.366Z,20.10
2022-10-23T19:01:11.253Z,18.80
2022-10-23T19:03:39.160Z,19.70
2022-10-23T19:06:09.573Z,18.63
2022-10-23T19:08:38.445Z,16.73
2022-10-23T19:11:07.424Z,16.70
2022-10-23T19:13:39.147Z,22.50
2022-10-23T19:16:09.886Z,32.60
2022-10-23T19:18:39.350Z,33.67
2022-10-23T19:21:08.772Z,24.73
2022-10-23T19:23:37.899Z,26.13
2022-10-23T19:26:08.856Z,21.87
2022-10-23T19:28:38.020Z,21.57
2022-10-23T19:31:07.624Z,22.70
2022-10-23T19:33:36.176Z,16.80
2022-10-23T19:36:05.317Z,23.60
2022-10-23T19:38:35.320Z,25.17
2022-10-23T19:41:03.890Z,24.10
2022-10-23T19:43:31.771Z,24.50
2022-10-23T19:46:05.170Z,22.37
2022-10-23T19:48:35.867Z,22.73
2022-10-23T19:51:03.687Z,22.73
2022-10-23T19:53:31.496Z,21.20
2022-10-23T19:56:05.297Z,23.70
2022-10-23T19:58:33.167Z,26.70
2022-10-23T20:01:08.328Z,22.90
2022-10-23T20:03:36.249Z,20.90
2022-10-23T20:06:04.135Z,22.87
2022-10-23T20:08:34.992Z,24.17
2022-10-23T20:11:04.840Z,22.87
2022-10-23T20:13:32.691Z,30.00
2022-10-23T20:16:00.629Z,28.13
2022-10-23T20:18:28.696Z,25.10
2022-10-23T20:20:56.543Z,39.83
2022-10-23T20:23:25.287Z,37.43
2022-10-23T20:25:53.111Z,34.70
2022-10-23T20:28:22.327Z,34.43
2022-10-23T20:30:50.164Z,41.87
2022-10-23T20:33:18.009Z,39.53
2022-10-23T20:35:45.897Z,36.50
2022-10-23T20:38:13.803Z,39.40
2022-10-23T20:40:41.625Z,39.17
2022-10-23T20:43:09.487Z,39.77
2022-10-23T20:45:38.684Z,36.33
2022-10-23T20:48:07.297Z,29.63
2022-10-23T20:50:35.950Z,21.67
2022-10-23T20:53:03.782Z,18.93
2022-10-23T20:55:31.676Z,21.43
2022-10-23T20:57:59.544Z,25.83
2022-10-23T21:00:27.430Z,31.80
2022-10-23T21:02:56.913Z,33.90
2022-10-23T21:05:24.932Z,35.67
2022-10-23T21:07:52.756Z,36.27
2022-10-23T21:10:20.639Z,40.67
2022-10-23T21:12:48.440Z,39.90
2022-10-23T21:15:16.299Z,35.63
2022-10-23T21:17:44.103Z,37.40
2022-10-23T21:20:13.443Z,35.90
2022-10-23T21:22:41.495Z,34.00
2022-10-23T21:25:10.176Z,35.80
2022-10-23T21:27:37.996Z,37.50
2022-10-23T21:30:06.920Z,36.17
2022-10-23T21:32:34.771Z,35.60
2022-10-23T21:35:02.713Z,36.87
2022-10-23T21:37:31.918Z,40.93
2022-10-23T21:39:59.764Z,51.00
2022-10-23T21:45:00.598Z,44.00
2022-10-23T21:47:28.431Z,43.97
2022-10-23T21:49:56.307Z,40.00
2022-10-23T21:52:24.119Z,41.80
2022-10-23T21:54:54.698Z,41.80
2022-10-23T21:57:22.585Z,41.90
2022-10-23T21:59:50.556Z,41.03
2022-10-23T22:02:18.852Z,43.27
2022-10-23T22:04:46.739Z,44.60
2022-10-23T22:07:15.227Z,49.57
2022-10-23T22:09:43.926Z,45.37
2022-10-23T22:12:13.716Z,48.80
2022-10-23T22:14:42.507Z,47.40
2022-10-23T22:17:10.339Z,47.67
2022-10-23T22:19:38.225Z,44.87
2022-10-23T22:22:06.167Z,43.80
2022-10-23T22:24:34.000Z,42.67
2022-10-23T22:27:01.859Z,42.97
2022-10-23T22:29:31.199Z,42.97
2022-10-23T22:31:59.823Z,43.17
2022-10-23T22:37:18.200Z,42.93
2022-10-23T22:39:46.044Z,44.03
2022-10-23T22:42:13.884Z,41.40
2022-10-23T22:44:43.096Z,37.33
2022-10-23T22:47:10.931Z,38.87
2022-10-23T22:49:39.417Z,37.93
2022-10-23T22:52:07.270Z,39.50
2022-10-23T22:54:35.340Z,38.97
2022-10-23T22:57:03.198Z,40.20
2022-10-23T22:59:31.028Z,39.27
2022-10-23T23:02:00.291Z,36.30
2022-10-23T23:04:43.323Z,35.80
2022-10-23T23:07:12.955Z,36.60
2022-10-23T23:09:42.296Z,37.17
2022-10-23T23:12:12.396Z,33.90
2022-10-23T23:14:41.021Z,34.23
2022-10-23T23:17:10.941Z,32.37
2022-10-23T23:19:39.303Z,32.40
2022-10-23T23:22:07.439Z,30.30
2022-10-23T23:24:35.343Z,30.80
2022-10-23T23:27:03.199Z,35.27
2022-10-23T23:29:31.021Z,28.97
2022-10-23T23:31:59.408Z,33.10
2022-10-23T23:34:29.853Z,34.70
2022-10-23T23:36:57.709Z,34.50
2022-10-23T23:39:26.097Z,34.77
2022-10-23T23:41:53.958Z,35.20
2022-10-23T23:44:21.946Z,34.93
2022-10-23T23:46:49.815Z,33.73
2022-10-23T23:49:17.715Z,31.43
2022-10-23T23:51:46.940Z,29.37
2022-10-23T23:54:14.823Z,29.63
2022-10-23T23:56:42.695Z,28.97
2022-10-23T23:59:10.505Z,27.00
